sensor_id;sensor_type;location;lat;lon;timestamp;pressure;altitude;pressure_sealevel;temperature;humidity
19576;BME280;41589;51.196;7.074;2023-07-20T00:02:10;98760.94;;;19.63;58.16
19576;BME280;41589;51.196;7.074;2023-07-20T00:07:10;98756.91;;;19.52;58.46
19576;BME280;41589;51.196;7.074;2023-07-20T00:12:11;98759.56;;;19.45;58.33
19576;BME280;41589;51.196;7.074;2023-07-20T00:17:11;98770.06;;;19.31;58.97
19576;BME280;41589;51.196;7.074;2023-07-20T00:22:12;98774.53;;;19.26;59.17
19576;BME280;41589;51.196;7.074;2023-07-20T00:27:13;98761.34;;;19.18;59.50
19576;BME280;41589;51.196;7.074;2023-07-20T00:32:13;98765.72;;;19.19;59.74
19576;BME280;41589;51.196;7.074;2023-07-20T00:37:14;98764.72;;;19.16;59.84
19576;BME280;41589;51.196;7.074;2023-07-20T00:42:14;98759.34;;;19.07;60.01
19576;BME280;41589;51.196;7.074;2023-07-20T00:47:15;98761.91;;;19.11;60.40
19576;BME280;41589;51.196;7.074;2023-07-20T00:52:15;98762.19;;;19.07;60.52
19576;BME280;41589;51.196;7.074;2023-07-20T00:57:17;98757.81;;;19.06;60.85
19576;BME280;41589;51.196;7.074;2023-07-20T01:02:18;98759.09;;;19.05;61.09
19576;BME280;41589;51.196;7.074;2023-07-20T01:12:36;98768.22;;;18.98;61.05
19576;BME280;41589;51.196;7.074;2023-07-20T01:17:40;98758.84;;;19.03;61.15
19576;BME280;41589;51.196;7.074;2023-07-20T01:33:19;98766.50;;;18.84;62.03
19576;BME280;41589;51.196;7.074;2023-07-20T01:38:21;98763.72;;;18.72;62.78
19576;BME280;41589;51.196;7.074;2023-07-20T01:43:23;98761.44;;;18.65;63.39
19576;BME280;41589;51.196;7.074;2023-07-20T01:48:23;98751.28;;;18.70;63.54
19576;BME280;41589;51.196;7.074;2023-07-20T01:53:24;98755.44;;;18.74;63.83
19576;BME280;41589;51.196;7.074;2023-07-20T01:58:24;98751.50;;;18.78;63.86
19576;BME280;41589;51.196;7.074;2023-07-20T02:03:25;98750.53;;;18.69;64.30
19576;BME280;41589;51.196;7.074;2023-07-20T02:08:27;98743.28;;;18.63;65.00
19576;BME280;41589;51.196;7.074;2023-07-20T02:13:30;98746.91;;;18.63;65.21
19576;BME280;41589;51.196;7.074;2023-07-20T02:18:31;98745.88;;;18.66;65.30
19576;BME280;41589;51.196;7.074;2023-07-20T02:23:31;98746.91;;;18.63;65.46
19576;BME280;41589;51.196;7.074;2023-07-20T02:28:32;98738.94;;;18.56;65.61
19576;BME280;41589;51.196;7.074;2023-07-20T02:33:32;98749.13;;;18.46;65.64
19576;BME280;41589;51.196;7.074;2023-07-20T02:38:32;98741.09;;;18.39;66.66
19576;BME280;41589;51.196;7.074;2023-07-20T02:43:33;98747.09;;;18.30;66.59
19576;BME280;41589;51.196;7.074;2023-07-20T02:48:33;98743.47;;;18.29;66.79
19576;BME280;41589;51.196;7.074;2023-07-20T02:53:34;98757.44;;;18.33;66.98
19576;BME280;41589;51.196;7.074;2023-07-20T02:58:34;98745.28;;;18.27;66.91
19576;BME280;41589;51.196;7.074;2023-07-20T03:03:37;98746.88;;;18.22;67.03
19576;BME280;41589;51.196;7.074;2023-07-20T03:08:38;98751.53;;;18.25;67.51
19576;BME280;41589;51.196;7.074;2023-07-20T03:13:39;98759.03;;;18.23;67.85
19576;BME280;41589;51.196;7.074;2023-07-20T03:18:39;98757.22;;;18.19;68.18
19576;BME280;41589;51.196;7.074;2023-07-20T03:23:41;98762.69;;;18.17;68.61
19576;BME280;41589;51.196;7.074;2023-07-20T03:28:43;98752.56;;;18.22;68.71
19576;BME280;41589;51.196;7.074;2023-07-20T03:33:44;98752.81;;;18.24;68.83
19576;BME280;41589;51.196;7.074;2023-07-20T03:38:45;98763.44;;;18.24;68.91
19576;BME280;41589;51.196;7.074;2023-07-20T03:43:45;98761.91;;;18.23;69.16
19576;BME280;41589;51.196;7.074;2023-07-20T03:48:45;98767.59;;;18.23;69.33
19576;BME280;41589;51.196;7.074;2023-07-20T03:53:46;98764.75;;;18.23;69.46
19576;BME280;41589;51.196;7.074;2023-07-20T03:58:46;98775.38;;;18.16;69.94
19576;BME280;41589;51.196;7.074;2023-07-20T04:03:47;98777.22;;;18.08;70.32
19576;BME280;41589;51.196;7.074;2023-07-20T04:08:47;98780.56;;;18.12;70.50
19576;BME280;41589;51.196;7.074;2023-07-20T04:13:47;98784.44;;;18.15;70.65
19576;BME280;41589;51.196;7.074;2023-07-20T04:18:48;98789.63;;;18.11;70.76
19576;BME280;41589;51.196;7.074;2023-07-20T04:23:49;98790.66;;;18.08;70.97
19576;BME280;41589;51.196;7.074;2023-07-20T04:28:50;98794.53;;;18.10;71.53
19576;BME280;41589;51.196;7.074;2023-07-20T04:34:04;98786.00;;;18.16;71.89
19576;BME280;41589;51.196;7.074;2023-07-20T04:39:09;98796.91;;;18.12;71.85
19576;BME280;41589;51.196;7.074;2023-07-20T04:44:14;98789.38;;;18.14;71.90
19576;BME280;41589;51.196;7.074;2023-07-20T04:49:15;98796.06;;;18.23;71.89
19576;BME280;41589;51.196;7.074;2023-07-20T04:54:17;98792.16;;;18.26;71.89
19576;BME280;41589;51.196;7.074;2023-07-20T04:59:19;98796.81;;;18.29;72.20
19576;BME280;41589;51.196;7.074;2023-07-20T05:04:19;98797.06;;;18.36;71.97
19576;BME280;41589;51.196;7.074;2023-07-20T05:09:20;98800.44;;;18.29;72.05
19576;BME280;41589;51.196;7.074;2023-07-20T05:14:21;98797.34;;;18.33;72.21
19576;BME280;41589;51.196;7.074;2023-07-20T05:19:24;98784.69;;;18.23;72.05
19576;BME280;41589;51.196;7.074;2023-07-20T05:24:25;98790.38;;;18.17;72.49
19576;BME280;41589;51.196;7.074;2023-07-20T05:29:25;98809.28;;;18.20;72.34
19576;BME280;41589;51.196;7.074;2023-07-20T05:34:25;98801.00;;;18.22;72.82
19576;BME280;41589;51.196;7.074;2023-07-20T05:39:26;98806.66;;;18.33;73.18
19576;BME280;41589;51.196;7.074;2023-07-20T05:44:26;98804.81;;;18.47;72.79
19576;BME280;41589;51.196;7.074;2023-07-20T05:49:27;98806.34;;;18.54;72.18
19576;BME280;41589;51.196;7.074;2023-07-20T05:54:27;98801.28;;;18.77;71.77
19576;BME280;41589;51.196;7.074;2023-07-20T05:59:28;98817.09;;;18.78;71.10
19576;BME280;41589;51.196;7.074;2023-07-20T06:04:31;98815.00;;;18.78;71.11
19576;BME280;41589;51.196;7.074;2023-07-20T06:09:32;98824.81;;;18.83;70.92
19576;BME280;41589;51.196;7.074;2023-07-20T06:14:32;98834.81;;;19.06;70.86
19576;BME280;41589;51.196;7.074;2023-07-20T06:19:32;98832.19;;;19.08;69.89
19576;BME280;41589;51.196;7.074;2023-07-20T06:24:33;98827.03;;;19.07;69.73
19576;BME280;41589;51.196;7.074;2023-07-20T06:29:33;98839.84;;;19.30;69.82
19576;BME280;41589;51.196;7.074;2023-07-20T06:34:34;98823.44;;;19.66;68.97
19576;BME280;41589;51.196;7.074;2023-07-20T06:39:37;98832.31;;;19.93;68.12
19576;BME280;41589;51.196;7.074;2023-07-20T06:44:37;98829.53;;;20.11;66.54
19576;BME280;41589;51.196;7.074;2023-07-20T06:49:37;98846.69;;;20.11;64.79
19576;BME280;41589;51.196;7.074;2023-07-20T06:54:38;98833.84;;;19.94;64.49
19576;BME280;41589;51.196;7.074;2023-07-20T06:59:38;98845.47;;;19.71;64.20
19576;BME280;41589;51.196;7.074;2023-07-20T07:04:38;98847.44;;;19.57;65.16
19576;BME280;41589;51.196;7.074;2023-07-20T07:09:39;98844.69;;;19.41;64.75
19576;BME280;41589;51.196;7.074;2023-07-20T07:14:39;98854.81;;;19.42;65.21
19576;BME280;41589;51.196;7.074;2023-07-20T07:19:40;98853.72;;;19.80;65.03
19576;BME280;41589;51.196;7.074;2023-07-20T07:24:42;98844.81;;;19.89;63.72
19576;BME280;41589;51.196;7.074;2023-07-20T07:29:43;98846.09;;;19.88;63.04
19576;BME280;41589;51.196;7.074;2023-07-20T07:34:46;98854.34;;;20.22;62.98
19576;BME280;41589;51.196;7.074;2023-07-20T07:39:47;98852.00;;;20.45;61.70
19576;BME280;41589;51.196;7.074;2023-07-20T07:44:48;98863.34;;;20.75;60.67
19576;BME280;41589;51.196;7.074;2023-07-20T07:49:48;98870.53;;;20.63;59.14
19576;BME280;41589;51.196;7.074;2023-07-20T07:54:49;98870.28;;;21.04;58.70
19576;BME280;41589;51.196;7.074;2023-07-20T07:59:50;98877.56;;;20.62;57.32
19576;BME280;41589;51.196;7.074;2023-07-20T08:04:50;98881.56;;;20.53;57.99
19576;BME280;41589;51.196;7.074;2023-07-20T08:09:52;98881.31;;;20.94;57.70
19576;BME280;41589;51.196;7.074;2023-07-20T08:14:52;98882.31;;;21.16;56.65
19576;BME280;41589;51.196;7.074;2023-07-20T08:19:53;98888.31;;;21.50;54.93
19576;BME280;41589;51.196;7.074;2023-07-20T08:24:53;98894.84;;;21.13;54.79
19576;BME280;41589;51.196;7.074;2023-07-20T08:29:53;98895.47;;;20.87;55.03
19576;BME280;41589;51.196;7.074;2023-07-20T08:34:54;98897.88;;;20.77;56.01
19576;BME280;41589;51.196;7.074;2023-07-20T08:39:54;98895.25;;;20.79;56.14
19576;BME280;41589;51.196;7.074;2023-07-20T08:44:55;98901.47;;;20.83;55.80
19576;BME280;41589;51.196;7.074;2023-07-20T08:49:56;98897.41;;;21.16;55.89
19576;BME280;41589;51.196;7.074;2023-07-20T08:54:56;98903.50;;;21.45;53.79
19576;BME280;41589;51.196;7.074;2023-07-20T08:59:57;98898.66;;;21.72;53.07
19576;BME280;41589;51.196;7.074;2023-07-20T09:04:57;98896.69;;;22.12;51.29
19576;BME280;41589;51.196;7.074;2023-07-20T09:09:58;98899.84;;;22.40;49.88
19576;BME280;41589;51.196;7.074;2023-07-20T09:15:00;98891.69;;;21.99;49.20
19576;BME280;41589;51.196;7.074;2023-07-20T09:20:05;98898.84;;;21.93;48.67
19576;BME280;41589;51.196;7.074;2023-07-20T09:25:13;98903.94;;;21.68;49.64
19576;BME280;41589;51.196;7.074;2023-07-20T09:30:15;98911.75;;;21.99;49.26
19576;BME280;41589;51.196;7.074;2023-07-20T09:35:17;98895.22;;;22.05;48.41
19576;BME280;41589;51.196;7.074;2023-07-20T09:40:18;98885.81;;;22.76;48.03
19576;BME280;41589;51.196;7.074;2023-07-20T09:45:19;98889.31;;;23.09;45.92
19576;BME280;41589;51.196;7.074;2023-07-20T09:50:20;98890.03;;;22.49;46.27
19576;BME280;41589;51.196;7.074;2023-07-20T09:55:20;98886.28;;;22.41;46.70
19576;BME280;41589;51.196;7.074;2023-07-20T10:00:21;98875.56;;;23.28;45.78
19576;BME280;41589;51.196;7.074;2023-07-20T10:05:21;98891.66;;;23.31;44.53
19576;BME280;41589;51.196;7.074;2023-07-20T10:10:22;98905.66;;;22.48;44.75
19576;BME280;41589;51.196;7.074;2023-07-20T10:15:25;98899.50;;;22.70;45.29
19576;BME280;41589;51.196;7.074;2023-07-20T10:20:29;98889.22;;;23.90;43.94
19576;BME280;41589;51.196;7.074;2023-07-20T10:25:30;98880.78;;;24.13;41.58
19576;BME280;41589;51.196;7.074;2023-07-20T10:30:36;98884.63;;;24.65;41.63
19576;BME280;41589;51.196;7.074;2023-07-20T10:35:54;98879.31;;;25.13;40.85
19576;BME280;41589;51.196;7.074;2023-07-20T10:40:55;98865.19;;;24.30;39.50
19576;BME280;41589;51.196;7.074;2023-07-20T10:45:57;98862.44;;;24.16;40.65
19576;BME280;41589;51.196;7.074;2023-07-20T10:51:20;98854.09;;;24.34;39.78
19576;BME280;41589;51.196;7.074;2023-07-20T10:56:22;98860.53;;;24.19;39.54
19576;BME280;41589;51.196;7.074;2023-07-20T11:01:28;98857.91;;;24.29;38.84
19576;BME280;41589;51.196;7.074;2023-07-20T11:06:30;98860.09;;;24.15;39.03
19576;BME280;41589;51.196;7.074;2023-07-20T11:11:34;98850.47;;;24.33;38.20
19576;BME280;41589;51.196;7.074;2023-07-20T11:16:43;98850.19;;;24.88;38.58
19576;BME280;41589;51.196;7.074;2023-07-20T11:21:46;98859.25;;;24.92;36.83
19576;BME280;41589;51.196;7.074;2023-07-20T11:26:48;98856.53;;;24.51;37.00
19576;BME280;41589;51.196;7.074;2023-07-20T11:31:49;98853.50;;;24.56;37.37
19576;BME280;41589;51.196;7.074;2023-07-20T11:36:51;98849.78;;;24.19;37.38
19576;BME280;41589;51.196;7.074;2023-07-20T11:41:53;98844.16;;;24.06;37.47
19576;BME280;41589;51.196;7.074;2023-07-20T11:52:08;98851.81;;;23.83;38.48
19576;BME280;41589;51.196;7.074;2023-07-20T11:57:20;98839.38;;;24.09;38.19
19576;BME280;41589;51.196;7.074;2023-07-20T12:02:20;98842.41;;;24.32;37.39
19576;BME280;41589;51.196;7.074;2023-07-20T12:07:21;98836.69;;;24.11;37.71
19576;BME280;41589;51.196;7.074;2023-07-20T12:12:22;98828.47;;;24.72;37.65
19576;BME280;41589;51.196;7.074;2023-07-20T12:17:22;98829.81;;;24.71;36.38
19576;BME280;41589;51.196;7.074;2023-07-20T12:22:23;98832.00;;;24.50;36.21
19576;BME280;41589;51.196;7.074;2023-07-20T12:27:27;98837.81;;;24.36;36.17
19576;BME280;41589;51.196;7.074;2023-07-20T12:32:28;98826.56;;;24.38;35.71
19576;BME280;41589;51.196;7.074;2023-07-20T12:37:28;98826.91;;;24.71;36.13
19576;BME280;41589;51.196;7.074;2023-07-20T12:42:28;98825.41;;;24.41;34.72
19576;BME280;41589;51.196;7.074;2023-07-20T12:47:29;98835.47;;;24.27;35.05
19576;BME280;41589;51.196;7.074;2023-07-20T12:52:29;98834.22;;;24.15;35.81
19576;BME280;41589;51.196;7.074;2023-07-20T12:57:30;98822.13;;;24.09;35.09
19576;BME280;41589;51.196;7.074;2023-07-20T13:02:32;98830.19;;;24.10;35.58
19576;BME280;41589;51.196;7.074;2023-07-20T13:07:37;98813.59;;;23.96;35.83
19576;BME280;41589;51.196;7.074;2023-07-20T13:12:38;98820.56;;;23.79;35.57
19576;BME280;41589;51.196;7.074;2023-07-20T13:17:39;98808.06;;;23.98;36.17
19576;BME280;41589;51.196;7.074;2023-07-20T13:22:40;98819.84;;;24.15;36.22
19576;BME280;41589;51.196;7.074;2023-07-20T13:27:40;98806.44;;;24.38;35.77
19576;BME280;41589;51.196;7.074;2023-07-20T13:32:41;98810.09;;;24.46;35.79
19576;BME280;41589;51.196;7.074;2023-07-20T13:37:41;98803.41;;;24.23;35.01
19576;BME280;41589;51.196;7.074;2023-07-20T13:42:42;98808.16;;;24.13;35.17
19576;BME280;41589;51.196;7.074;2023-07-20T13:47:42;98797.91;;;24.33;35.79
19576;BME280;41589;51.196;7.074;2023-07-20T13:52:43;98805.84;;;24.40;34.75
19576;BME280;41589;51.196;7.074;2023-07-20T13:57:43;98794.34;;;24.40;35.04
19576;BME280;41589;51.196;7.074;2023-07-20T14:02:44;98797.72;;;24.02;35.10
19576;BME280;41589;51.196;7.074;2023-07-20T14:07:44;98798.13;;;23.57;36.16
19576;BME280;41589;51.196;7.074;2023-07-20T14:12:45;98802.03;;;23.25;36.72
19576;BME280;41589;51.196;7.074;2023-07-20T14:17:45;98791.03;;;23.16;36.69
19576;BME280;41589;51.196;7.074;2023-07-20T14:22:46;98796.28;;;23.04;37.14
19576;BME280;41589;51.196;7.074;2023-07-20T14:27:47;98786.78;;;22.96;36.98
19576;BME280;41589;51.196;7.074;2023-07-20T14:32:48;98789.81;;;22.77;37.60
19576;BME280;41589;51.196;7.074;2023-07-20T14:37:48;98790.47;;;22.84;38.38
19576;BME280;41589;51.196;7.074;2023-07-20T14:42:50;98795.28;;;22.89;37.61
19576;BME280;41589;51.196;7.074;2023-07-20T14:47:52;98779.59;;;23.03;37.71
19576;BME280;41589;51.196;7.074;2023-07-20T14:52:54;98788.16;;;23.16;37.78
19576;BME280;41589;51.196;7.074;2023-07-20T14:57:55;98780.88;;;23.15;37.55
19576;BME280;41589;51.196;7.074;2023-07-20T15:02:55;98777.53;;;23.24;37.99
19576;BME280;41589;51.196;7.074;2023-07-20T15:07:56;98770.03;;;23.42;37.20
19576;BME280;41589;51.196;7.074;2023-07-20T15:12:56;98759.03;;;23.75;37.74
19576;BME280;41589;51.196;7.074;2023-07-20T15:17:57;98762.81;;;24.27;37.07
19576;BME280;41589;51.196;7.074;2023-07-20T15:22:57;98757.28;;;24.36;35.58
19576;BME280;41589;51.196;7.074;2023-07-20T15:27:57;98751.28;;;24.19;34.88
19576;BME280;41589;51.196;7.074;2023-07-20T15:32:58;98751.22;;;24.11;36.17
19576;BME280;41589;51.196;7.074;2023-07-20T15:37:58;98734.19;;;24.50;36.45
19576;BME280;41589;51.196;7.074;2023-07-20T15:42:59;98737.66;;;24.56;35.27
19576;BME280;41589;51.196;7.074;2023-07-20T15:48:00;98729.59;;;24.54;34.65
19576;BME280;41589;51.196;7.074;2023-07-20T15:53:00;98733.22;;;24.47;34.07
19576;BME280;41589;51.196;7.074;2023-07-20T15:58:00;98712.03;;;24.29;34.25
19576;BME280;41589;51.196;7.074;2023-07-20T16:03:02;98706.84;;;24.28;34.72
19576;BME280;41589;51.196;7.074;2023-07-20T16:08:02;98710.41;;;24.49;35.44
19576;BME280;41589;51.196;7.074;2023-07-20T16:13:04;98702.78;;;24.59;34.67
19576;BME280;41589;51.196;7.074;2023-07-20T16:18:05;98694.25;;;24.38;34.40
19576;BME280;41589;51.196;7.074;2023-07-20T16:23:05;98693.69;;;24.40;35.13
19576;BME280;41589;51.196;7.074;2023-07-20T16:28:05;98692.84;;;24.32;34.10
19576;BME280;41589;51.196;7.074;2023-07-20T16:33:06;98688.38;;;24.15;34.26
19576;BME280;41589;51.196;7.074;2023-07-20T16:38:07;98685.13;;;24.19;35.55
19576;BME280;41589;51.196;7.074;2023-07-20T16:43:07;98672.63;;;24.09;35.69
19576;BME280;41589;51.196;7.074;2023-07-20T16:48:08;98671.00;;;23.93;34.52
19576;BME280;41589;51.196;7.074;2023-07-20T16:53:09;98669.41;;;23.76;34.55
19576;BME280;41589;51.196;7.074;2023-07-20T16:58:09;98675.22;;;23.92;34.65
19576;BME280;41589;51.196;7.074;2023-07-20T17:03:10;98671.94;;;23.87;34.91
19576;BME280;41589;51.196;7.074;2023-07-20T17:08:11;98673.94;;;23.72;35.15
19576;BME280;41589;51.196;7.074;2023-07-20T17:13:11;98668.16;;;23.64;34.99
19576;BME280;41589;51.196;7.074;2023-07-20T17:18:14;98664.34;;;23.69;35.27
19576;BME280;41589;51.196;7.074;2023-07-20T17:23:15;98661.75;;;23.79;34.89
19576;BME280;41589;51.196;7.074;2023-07-20T17:28:16;98669.09;;;23.87;34.30
19576;BME280;41589;51.196;7.074;2023-07-20T17:33:17;98663.53;;;23.89;34.93
19576;BME280;41589;51.196;7.074;2023-07-20T17:38:17;98659.69;;;23.87;33.92
19576;BME280;41589;51.196;7.074;2023-07-20T17:43:18;98664.34;;;23.69;34.20
19576;BME280;41589;51.196;7.074;2023-07-20T17:48:19;98659.47;;;23.56;34.65
19576;BME280;41589;51.196;7.074;2023-07-20T17:53:19;98652.97;;;23.56;35.50
19576;BME280;41589;51.196;7.074;2023-07-20T17:58:20;98647.22;;;23.56;36.16
19576;BME280;41589;51.196;7.074;2023-07-20T18:03:20;98655.00;;;23.48;36.35
19576;BME280;41589;51.196;7.074;2023-07-20T18:08:21;98652.34;;;23.50;36.88
19576;BME280;41589;51.196;7.074;2023-07-20T18:13:21;98643.16;;;23.51;37.72
19576;BME280;41589;51.196;7.074;2023-07-20T18:18:21;98643.47;;;23.40;36.38
19576;BME280;41589;51.196;7.074;2023-07-20T18:23:22;98642.59;;;23.24;37.35
19576;BME280;41589;51.196;7.074;2023-07-20T18:28:22;98640.22;;;23.15;37.28
19576;BME280;41589;51.196;7.074;2023-07-20T18:33:23;98643.22;;;23.10;37.64
19576;BME280;41589;51.196;7.074;2023-07-20T18:38:23;98638.50;;;22.99;38.42
19576;BME280;41589;51.196;7.074;2023-07-20T18:43:24;98638.81;;;22.88;38.83
19576;BME280;41589;51.196;7.074;2023-07-20T18:48:24;98644.63;;;22.74;39.08
19576;BME280;41589;51.196;7.074;2023-07-20T18:53:24;98634.38;;;22.66;39.46
19576;BME280;41589;51.196;7.074;2023-07-20T18:58:25;98640.31;;;22.47;38.29
19576;BME280;41589;51.196;7.074;2023-07-20T19:03:25;98639.22;;;22.50;39.57
19576;BME280;41589;51.196;7.074;2023-07-20T19:08:26;98636.47;;;22.44;39.05
19576;BME280;41589;51.196;7.074;2023-07-20T19:13:26;98636.47;;;22.44;40.07
19576;BME280;41589;51.196;7.074;2023-07-20T19:18:26;98636.81;;;22.41;39.44
19576;BME280;41589;51.196;7.074;2023-07-20T19:23:27;98632.41;;;22.40;39.75
19576;BME280;41589;51.196;7.074;2023-07-20T19:28:30;98635.03;;;22.38;39.49
19576;BME280;41589;51.196;7.074;2023-07-20T19:33:30;98640.91;;;22.32;39.50
19576;BME280;41589;51.196;7.074;2023-07-20T19:38:31;98632.66;;;22.29;39.55
19576;BME280;41589;51.196;7.074;2023-07-20T19:43:32;98633.78;;;22.12;39.46
19576;BME280;41589;51.196;7.074;2023-07-20T19:48:32;98640.19;;;22.05;39.48
19576;BME280;41589;51.196;7.074;2023-07-20T19:53:33;98640.28;;;22.13;39.69
19576;BME280;41589;51.196;7.074;2023-07-20T19:58:34;98640.84;;;22.11;39.74
19576;BME280;41589;51.196;7.074;2023-07-20T20:03:34;98644.13;;;22.15;39.85
19576;BME280;41589;51.196;7.074;2023-07-20T20:08:35;98645.66;;;22.16;39.03
19576;BME280;41589;51.196;7.074;2023-07-20T20:13:37;98638.31;;;21.95;38.71
19576;BME280;41589;51.196;7.074;2023-07-20T20:18:39;98645.72;;;21.90;38.91
19576;BME280;41589;51.196;7.074;2023-07-20T20:23:46;98640.94;;;22.06;38.80
19576;BME280;41589;51.196;7.074;2023-07-20T20:28:49;98645.59;;;22.09;38.46
19576;BME280;41589;51.196;7.074;2023-07-20T20:33:49;98628.72;;;22.05;39.02
19576;BME280;41589;51.196;7.074;2023-07-20T20:38:50;98633.78;;;22.12;39.33
19576;BME280;41589;51.196;7.074;2023-07-20T20:43:50;98635.31;;;22.13;39.13
19576;BME280;41589;51.196;7.074;2023-07-20T20:48:50;98631.81;;;22.07;38.95
19576;BME280;41589;51.196;7.074;2023-07-20T20:53:51;98637.56;;;22.07;39.33
19576;BME280;41589;51.196;7.074;2023-07-20T20:58:51;98642.97;;;21.98;39.98
19576;BME280;41589;51.196;7.074;2023-07-20T21:03:53;98649.63;;;21.66;40.78
19576;BME280;41589;51.196;7.074;2023-07-20T21:08:54;98667.50;;;21.40;41.84
19576;BME280;41589;51.196;7.074;2023-07-20T21:13:55;98682.88;;;21.11;43.76
19576;BME280;41589;51.196;7.074;2023-07-20T21:18:56;98691.41;;;20.46;46.97
19576;BME280;41589;51.196;7.074;2023-07-20T21:23:56;98710.81;;;19.92;49.41
19576;BME280;41589;51.196;7.074;2023-07-20T21:28:57;98717.72;;;19.53;51.14
19576;BME280;41589;51.196;7.074;2023-07-20T21:33:58;98734.28;;;19.24;52.34
19576;BME280;41589;51.196;7.074;2023-07-20T21:38:58;98741.63;;;18.84;54.33
19576;BME280;41589;51.196;7.074;2023-07-20T21:43:58;98742.53;;;18.62;55.64
19576;BME280;41589;51.196;7.074;2023-07-20T21:48:59;98744.94;;;18.41;56.91
19576;BME280;41589;51.196;7.074;2023-07-20T21:53:59;98741.84;;;18.39;58.07
19576;BME280;41589;51.196;7.074;2023-07-20T21:59:00;98722.16;;;18.41;58.50
19576;BME280;41589;51.196;7.074;2023-07-20T22:04:03;98714.19;;;18.34;59.20
19576;BME280;41589;51.196;7.074;2023-07-20T22:09:04;98701.81;;;18.21;60.36
19576;BME280;41589;51.196;7.074;2023-07-20T22:14:07;98686.72;;;17.84;61.78
19576;BME280;41589;51.196;7.074;2023-07-20T22:19:08;98687.31;;;17.60;62.81
19576;BME280;41589;51.196;7.074;2023-07-20T22:24:09;98677.72;;;17.58;63.42
19576;BME280;41589;51.196;7.074;2023-07-20T22:29:10;98681.31;;;17.75;63.56
19576;BME280;41589;51.196;7.074;2023-07-20T22:34:10;98666.34;;;17.64;63.67
19576;BME280;41589;51.196;7.074;2023-07-20T22:39:13;98656.50;;;17.70;63.63
19576;BME280;41589;51.196;7.074;2023-07-20T22:44:16;98662.34;;;17.89;62.97
19576;BME280;41589;51.196;7.074;2023-07-20T22:49:20;98658.19;;;18.01;63.14
19576;BME280;41589;51.196;7.074;2023-07-20T22:54:21;98649.06;;;18.08;62.83
19576;BME280;41589;51.196;7.074;2023-07-20T22:59:22;98645.38;;;18.19;62.81
19576;BME280;41589;51.196;7.074;2023-07-20T23:04:22;98636.28;;;18.26;62.87
19576;BME280;41589;51.196;7.074;2023-07-20T23:09:23;98627.47;;;18.24;62.82
19576;BME280;41589;51.196;7.074;2023-07-20T23:14:23;98631.38;;;18.21;62.91
19576;BME280;41589;51.196;7.074;2023-07-20T23:19:24;98629.34;;;18.16;63.19
19576;BME280;41589;51.196;7.074;2023-07-20T23:24:27;98622.41;;;18.11;63.45
19576;BME280;41589;51.196;7.074;2023-07-20T23:29:27;98608.59;;;18.21;63.40
19576;BME280;41589;51.196;7.074;2023-07-20T23:34:29;98610.19;;;18.16;62.87
19576;BME280;41589;51.196;7.074;2023-07-20T23:39:30;98608.19;;;18.06;63.14
19576;BME280;41589;51.196;7.074;2023-07-20T23:44:32;98600.16;;;18.04;63.28
19576;BME280;41589;51.196;7.074;2023-07-20T23:49:33;98597.56;;;18.06;63.32
19576;BME280;41589;51.196;7.074;2023-07-20T23:54:34;98592.69;;;18.01;63.33
19576;BME280;41589;51.196;7.074;2023-07-20T23:59:35;98590.63;;;17.96;63.43
